Hovedside
METAR-TAF:

METAR-TAF

Lufthavner :

Bergen lufthavn. Flesland

Bergen, Norge

breddegrad: 60-17N, lengdegrad: 005-14E, høyde over havet: 5 m

Gjeldene værobservasjon

Denne rapporten ble laget for 34 minutter siden, klokken 19:50 UTC
Vind 4 kt fra Nord
Temperatur 3°C
Luftfuktighet 87%
Trykk 1010 hPa
Sikt 10 km eller mer
ingen skyer under 1500 m og ingen bygeskyer

METAR: ENBR 181950Z 36004KT CAVOK 03/01 Q1010 NOSIG RMK WIND 1200FT 34013KT

Tid: 21:24 (20:24 UTC)

Varsel

Varsel gyldig fra 18. klokken 18 UTC til 19. klokken 18 UTC
Vind 8 kt fra Nord
Sikt 10 km eller mer
Få skyer i en høyde av 1500 ft
Spredte skyer i en høyde av 5000 ft

TAF: ENBR 1818/1918 36008KT 9999 FEW015 SCT050

Værobservasjoner og værvarsel for over 4000 flyplasser (METAR- og TAF-rapporter).

Tilgjengelige stasjoner er representert av de røde og gule prikkene på kartet.

Hold musepekeren over prikken for å se navnet på stasjonen.

Klikk så for å se værobservasjoner og -varsler.

For å forandre kartet kan du klikke på den grønne knappen med svart kryss for å zoome inn, på den grønne knappen med strek for å zoome ut, eller på de grønne pilene for å se tilstøtende kart.


METAR-TAF: